PLF111 EPKK-EPKK
Flight info
| Callsign | PLF111 |
|---|---|
| Flight time | 1h 23m |
| Altitude | 5500 |
| Route | DCT EPKKZ DCT EPKKO DCT EPKKM 503817N0201852E 505437N0203417E DCT EPRAI DCT EPRAH DCT AEPRA/STAY10020 DCT EPRAH/N0200A4500 DCT EPRAI 505437N0203417E 503817N0201852E DCT EPKKM DCT EPKKO DCT EPKKZ |
| Aircraft | M28/M-SDFHRY/HB1 |
Departure
| Time | 2026-05-06 15:42 |
|---|---|
| Airport | Kraków John Paul II International Airport (EPKK) |
Arrival
| Time | 2026-05-06 17:06 |
|---|---|
| Airport | Kraków John Paul II International Airport (EPKK) |
| Time | Latitude | Longitude | Altitude | Speed | Heading |
|---|---|---|---|---|---|
| 2026-05-06 15:30 | 50.07519 | 19.78961 | 798 ft | 0 kts | 336° |
| 2026-05-06 15:38 | 50.07520 | 19.78961 | 798 ft | 0 kts | 336° |
| 2026-05-06 15:38 | 50.07539 | 19.78949 | 798 ft | 6 kts | 338° |
| 2026-05-06 15:39 | 50.07570 | 19.79012 | 798 ft | 13 kts | 67° |
| 2026-05-06 15:39 | 50.07615 | 19.79175 | 798 ft | 19 kts | 71° |
| 2026-05-06 15:39 | 50.07645 | 19.79386 | 798 ft | 20 kts | 77° |
| 2026-05-06 15:39 | 50.07674 | 19.79596 | 798 ft | 20 kts | 78° |
| 2026-05-06 15:40 | 50.07705 | 19.79816 | 798 ft | 22 kts | 79° |
| 2026-05-06 15:40 | 50.07737 | 19.80043 | 798 ft | 21 kts | 77° |
| 2026-05-06 15:40 | 50.07765 | 19.80251 | 798 ft | 17 kts | 78° |
| 2026-05-06 15:40 | 50.07809 | 19.80348 | 798 ft | 13 kts | 359° |
| 2026-05-06 15:41 | 50.07875 | 19.80326 | 798 ft | 9 kts | 346° |
| 2026-05-06 15:41 | 50.07946 | 19.80301 | 798 ft | 12 kts | 348° |
| 2026-05-06 15:41 | 50.08020 | 19.80261 | 798 ft | 8 kts | 274° |
| 2026-05-06 15:41 | 50.08018 | 19.80238 | 798 ft | 0 kts | 257° |
| 2026-05-06 15:42 | 50.07974 | 19.79953 | 799 ft | 65 kts | 256° |
| 2026-05-06 15:42 | 50.07826 | 19.79044 | 883 ft | 107 kts | 259° |
| 2026-05-06 15:42 | 50.07661 | 19.77764 | 1131 ft | 129 kts | 256° |
| 2026-05-06 15:42 | 50.07438 | 19.76379 | 1557 ft | 130 kts | 257° |
| 2026-05-06 15:43 | 50.07414 | 19.74973 | 1852 ft | 138 kts | 285° |
| 2026-05-06 15:43 | 50.08043 | 19.73767 | 2009 ft | 154 kts | 329° |
| 2026-05-06 15:43 | 50.09100 | 19.73802 | 2127 ft | 170 kts | 18° |
| 2026-05-06 15:43 | 50.09984 | 19.75149 | 2018 ft | 180 kts | 59° |
| 2026-05-06 15:44 | 50.10573 | 19.76910 | 1842 ft | 187 kts | 62° |
| 2026-05-06 15:44 | 50.11225 | 19.78681 | 1673 ft | 187 kts | 52° |
| 2026-05-06 15:44 | 50.12118 | 19.80098 | 1675 ft | 182 kts | 37° |
| 2026-05-06 15:44 | 50.13095 | 19.81350 | 1680 ft | 182 kts | 35° |
| 2026-05-06 15:45 | 50.14125 | 19.82485 | 1693 ft | 182 kts | 30° |
| 2026-05-06 15:45 | 50.15184 | 19.83430 | 1877 ft | 171 kts | 24° |
| 2026-05-06 15:45 | 50.16268 | 19.84233 | 2056 ft | 173 kts | 22° |
| 2026-05-06 15:45 | 50.17366 | 19.84915 | 2445 ft | 168 kts | 19° |
| 2026-05-06 15:46 | 50.18514 | 19.85488 | 2621 ft | 179 kts | 12° |
| 2026-05-06 15:46 | 50.19668 | 19.86114 | 2971 ft | 171 kts | 22° |
| 2026-05-06 15:46 | 50.20725 | 19.86988 | 3380 ft | 169 kts | 30° |
| 2026-05-06 15:46 | 50.21739 | 19.87933 | 3596 ft | 178 kts | 30° |
| 2026-05-06 15:47 | 50.22784 | 19.88959 | 3905 ft | 176 kts | 31° |
| 2026-05-06 15:47 | 50.23821 | 19.89984 | 4182 ft | 177 kts | 31° |
| 2026-05-06 15:47 | 50.24844 | 19.91060 | 4491 ft | 177 kts | 34° |
| 2026-05-06 15:47 | 50.25836 | 19.92187 | 4800 ft | 176 kts | 36° |
| 2026-05-06 15:48 | 50.26792 | 19.93377 | 5122 ft | 174 kts | 38° |
| 2026-05-06 15:48 | 50.27746 | 19.94559 | 5378 ft | 179 kts | 37° |
| 2026-05-06 15:48 | 50.28778 | 19.95795 | 5456 ft | 192 kts | 38° |
| 2026-05-06 15:48 | 50.29820 | 19.97113 | 5510 ft | 193 kts | 39° |
| 2026-05-06 15:49 | 50.30846 | 19.98466 | 5553 ft | 192 kts | 38° |
| 2026-05-06 15:49 | 50.31917 | 19.99721 | 5546 ft | 195 kts | 36° |
| 2026-05-06 15:49 | 50.33018 | 20.00996 | 5513 ft | 197 kts | 34° |
| 2026-05-06 15:49 | 50.34187 | 20.02117 | 5511 ft | 197 kts | 27° |
| 2026-05-06 15:50 | 50.35406 | 20.03069 | 5524 ft | 195 kts | 24° |
| 2026-05-06 15:50 | 50.36631 | 20.03965 | 5512 ft | 194 kts | 24° |
| 2026-05-06 15:50 | 50.37825 | 20.04865 | 5574 ft | 192 kts | 23° |
| 2026-05-06 15:50 | 50.39021 | 20.05817 | 5536 ft | 197 kts | 26° |
| 2026-05-06 15:51 | 50.40220 | 20.06877 | 5533 ft | 197 kts | 28° |
| 2026-05-06 15:51 | 50.41386 | 20.08004 | 5511 ft | 196 kts | 31° |
| 2026-05-06 15:51 | 50.42521 | 20.09190 | 5512 ft | 196 kts | 33° |
| 2026-05-06 15:51 | 50.43676 | 20.10341 | 5515 ft | 196 kts | 31° |
| 2026-05-06 15:52 | 50.44817 | 20.11499 | 5542 ft | 195 kts | 32° |
| 2026-05-06 15:52 | 50.45940 | 20.12697 | 5555 ft | 194 kts | 32° |
| 2026-05-06 15:52 | 50.47079 | 20.13832 | 5553 ft | 194 kts | 28° |
| 2026-05-06 15:52 | 50.48244 | 20.14895 | 5534 ft | 193 kts | 30° |
| 2026-05-06 15:53 | 50.49396 | 20.16002 | 5502 ft | 195 kts | 30° |
| 2026-05-06 15:53 | 50.50537 | 20.17096 | 5496 ft | 194 kts | 30° |
| 2026-05-06 15:53 | 50.51681 | 20.18214 | 5506 ft | 194 kts | 31° |
| 2026-05-06 15:53 | 50.52809 | 20.19383 | 5495 ft | 195 kts | 32° |
| 2026-05-06 15:54 | 50.53947 | 20.20525 | 5567 ft | 192 kts | 30° |
| 2026-05-06 15:54 | 50.55084 | 20.21587 | 5615 ft | 190 kts | 28° |
| 2026-05-06 15:54 | 50.56267 | 20.22627 | 5563 ft | 194 kts | 27° |
| 2026-05-06 15:54 | 50.57434 | 20.23672 | 5551 ft | 195 kts | 27° |
| 2026-05-06 15:55 | 50.58601 | 20.24704 | 5616 ft | 192 kts | 28° |
| 2026-05-06 15:55 | 50.59764 | 20.25827 | 5539 ft | 198 kts | 31° |
| 2026-05-06 15:55 | 50.60918 | 20.27004 | 5548 ft | 197 kts | 31° |
| 2026-05-06 15:55 | 50.62053 | 20.28195 | 5525 ft | 197 kts | 33° |
| 2026-05-06 15:56 | 50.63195 | 20.29368 | 5555 ft | 194 kts | 32° |
| 2026-05-06 15:56 | 50.64327 | 20.30522 | 5580 ft | 194 kts | 33° |
| 2026-05-06 15:56 | 50.65439 | 20.31777 | 5517 ft | 198 kts | 36° |
| 2026-05-06 15:56 | 50.66525 | 20.33094 | 5527 ft | 197 kts | 38° |
| 2026-05-06 15:57 | 50.67602 | 20.34426 | 5508 ft | 197 kts | 36° |
| 2026-05-06 15:57 | 50.68724 | 20.35701 | 5495 ft | 196 kts | 34° |
| 2026-05-06 15:57 | 50.69846 | 20.36919 | 5508 ft | 195 kts | 33° |
| 2026-05-06 15:57 | 50.70975 | 20.38113 | 5506 ft | 196 kts | 32° |
| 2026-05-06 15:58 | 50.72101 | 20.39319 | 5501 ft | 196 kts | 34° |
| 2026-05-06 15:58 | 50.73221 | 20.40566 | 5484 ft | 196 kts | 34° |
| 2026-05-06 15:58 | 50.74341 | 20.41762 | 5543 ft | 193 kts | 32° |
| 2026-05-06 15:58 | 50.75464 | 20.42925 | 5547 ft | 194 kts | 32° |
| 2026-05-06 15:59 | 50.76596 | 20.44119 | 5523 ft | 196 kts | 32° |
| 2026-05-06 15:59 | 50.77739 | 20.45284 | 5535 ft | 195 kts | 31° |
| 2026-05-06 15:59 | 50.78889 | 20.46438 | 5538 ft | 196 kts | 31° |
| 2026-05-06 15:59 | 50.80040 | 20.47578 | 5542 ft | 195 kts | 30° |
| 2026-05-06 16:00 | 50.81199 | 20.48685 | 5557 ft | 195 kts | 29° |
| 2026-05-06 16:00 | 50.82369 | 20.49782 | 5543 ft | 196 kts | 29° |
| 2026-05-06 16:00 | 50.83537 | 20.50896 | 5515 ft | 196 kts | 30° |
| 2026-05-06 16:00 | 50.84666 | 20.52088 | 5542 ft | 194 kts | 34° |
| 2026-05-06 16:01 | 50.85746 | 20.53339 | 5509 ft | 196 kts | 35° |
| 2026-05-06 16:01 | 50.86858 | 20.54648 | 5491 ft | 197 kts | 36° |
| 2026-05-06 16:01 | 50.87928 | 20.55968 | 5478 ft | 198 kts | 37° |
| 2026-05-06 16:01 | 50.88999 | 20.57295 | 5534 ft | 194 kts | 35° |
| 2026-05-06 16:02 | 50.90125 | 20.58463 | 5499 ft | 195 kts | 27° |
| 2026-05-06 16:02 | 50.91341 | 20.59416 | 5479 ft | 196 kts | 25° |
| 2026-05-06 16:02 | 50.92554 | 20.60403 | 5497 ft | 196 kts | 26° |
| 2026-05-06 16:02 | 50.93777 | 20.61367 | 5491 ft | 196 kts | 24° |
| 2026-05-06 16:03 | 50.94996 | 20.62327 | 5493 ft | 195 kts | 26° |
| 2026-05-06 16:03 | 50.96201 | 20.63335 | 5442 ft | 197 kts | 27° |
| 2026-05-06 16:03 | 50.97384 | 20.64406 | 5453 ft | 194 kts | 28° |
| 2026-05-06 16:03 | 50.98556 | 20.65466 | 5491 ft | 194 kts | 28° |
| 2026-05-06 16:04 | 50.99744 | 20.66560 | 5508 ft | 195 kts | 29° |
| 2026-05-06 16:04 | 51.00907 | 20.67670 | 5494 ft | 195 kts | 29° |
| 2026-05-06 16:04 | 51.02069 | 20.68708 | 5473 ft | 194 kts | 27° |
| 2026-05-06 16:04 | 51.03277 | 20.69742 | 5453 ft | 196 kts | 26° |
| 2026-05-06 16:05 | 51.04491 | 20.70703 | 5478 ft | 193 kts | 25° |
| 2026-05-06 16:05 | 51.05684 | 20.71644 | 5520 ft | 191 kts | 25° |
| 2026-05-06 16:05 | 51.06860 | 20.72641 | 5536 ft | 192 kts | 27° |
| 2026-05-06 16:05 | 51.08026 | 20.73688 | 5531 ft | 194 kts | 28° |
| 2026-05-06 16:06 | 51.09198 | 20.74752 | 5527 ft | 194 kts | 28° |
| 2026-05-06 16:06 | 51.10354 | 20.75860 | 5544 ft | 194 kts | 31° |
| 2026-05-06 16:06 | 51.11491 | 20.77034 | 5552 ft | 194 kts | 33° |
| 2026-05-06 16:06 | 51.12604 | 20.78256 | 5528 ft | 195 kts | 32° |
| 2026-05-06 16:07 | 51.13690 | 20.79339 | 5511 ft | 196 kts | 29° |
| 2026-05-06 16:07 | 51.14871 | 20.80404 | 5523 ft | 194 kts | 27° |
| 2026-05-06 16:07 | 51.16048 | 20.81412 | 5571 ft | 191 kts | 26° |
| 2026-05-06 16:07 | 51.17254 | 20.82355 | 5488 ft | 194 kts | 22° |
| 2026-05-06 16:08 | 51.18483 | 20.83251 | 5478 ft | 194 kts | 22° |
| 2026-05-06 16:08 | 51.19709 | 20.84164 | 5413 ft | 196 kts | 24° |
| 2026-05-06 16:08 | 51.20923 | 20.85118 | 5334 ft | 189 kts | 27° |
| 2026-05-06 16:08 | 51.22004 | 20.86283 | 5147 ft | 188 kts | 38° |
| 2026-05-06 16:09 | 51.22981 | 20.87657 | 4971 ft | 187 kts | 44° |
| 2026-05-06 16:09 | 51.23876 | 20.89166 | 4726 ft | 188 kts | 49° |
| 2026-05-06 16:09 | 51.24662 | 20.90800 | 4519 ft | 188 kts | 56° |
| 2026-05-06 16:09 | 51.25340 | 20.92592 | 4196 ft | 191 kts | 63° |
| 2026-05-06 16:10 | 51.25892 | 20.94554 | 3889 ft | 188 kts | 70° |
| 2026-05-06 16:10 | 51.26312 | 20.96521 | 3592 ft | 187 kts | 75° |
| 2026-05-06 16:10 | 51.26680 | 20.98468 | 3324 ft | 185 kts | 74° |
| 2026-05-06 16:10 | 51.27144 | 21.00407 | 3027 ft | 186 kts | 69° |
| 2026-05-06 16:11 | 51.27694 | 21.02297 | 2719 ft | 188 kts | 65° |
| 2026-05-06 16:11 | 51.28306 | 21.04109 | 2516 ft | 182 kts | 62° |
| 2026-05-06 16:11 | 51.28940 | 21.05817 | 2264 ft | 183 kts | 60° |
| 2026-05-06 16:11 | 51.29616 | 21.07592 | 1874 ft | 191 kts | 59° |
| 2026-05-06 16:12 | 51.30289 | 21.09386 | 1702 ft | 184 kts | 62° |
| 2026-05-06 16:12 | 51.30914 | 21.11150 | 1498 ft | 183 kts | 63° |
| 2026-05-06 16:12 | 51.31503 | 21.12908 | 1484 ft | 175 kts | 64° |
| 2026-05-06 16:12 | 51.32061 | 21.14699 | 1446 ft | 184 kts | 64° |
| 2026-05-06 16:13 | 51.32609 | 21.16528 | 1499 ft | 181 kts | 66° |
| 2026-05-06 16:13 | 51.32976 | 21.17776 | 1468 ft | 185 kts | 66° |
| 2026-05-06 16:13 | 51.33511 | 21.19649 | 1449 ft | 185 kts | 67° |
| 2026-05-06 16:13 | 51.34048 | 21.21518 | 1462 ft | 185 kts | 67° |
| 2026-05-06 16:14 | 51.34589 | 21.23380 | 1477 ft | 186 kts | 66° |
| 2026-05-06 16:14 | 51.35153 | 21.25224 | 1554 ft | 183 kts | 65° |
| 2026-05-06 16:14 | 51.35704 | 21.27062 | 1536 ft | 186 kts | 67° |
| 2026-05-06 16:14 | 51.36260 | 21.28947 | 1532 ft | 188 kts | 66° |
| 2026-05-06 16:15 | 51.36835 | 21.30791 | 1593 ft | 185 kts | 65° |
| 2026-05-06 16:15 | 51.37413 | 21.32649 | 1516 ft | 189 kts | 66° |
| 2026-05-06 16:15 | 51.38155 | 21.34385 | 1420 ft | 192 kts | 40° |
| 2026-05-06 16:15 | 51.39375 | 21.35073 | 1447 ft | 187 kts | 356° |
| 2026-05-06 16:16 | 51.40504 | 21.34281 | 1501 ft | 175 kts | 308° |
| 2026-05-06 16:16 | 51.40866 | 21.32562 | 1492 ft | 164 kts | 258° |
| 2026-05-06 16:16 | 51.40530 | 21.30873 | 1491 ft | 160 kts | 249° |
| 2026-05-06 16:16 | 51.40205 | 21.29181 | 1508 ft | 162 kts | 252° |
| 2026-05-06 16:17 | 51.39932 | 21.27418 | 1509 ft | 165 kts | 252° |
| 2026-05-06 16:17 | 51.39619 | 21.25606 | 1462 ft | 168 kts | 251° |
| 2026-05-06 16:17 | 51.39296 | 21.23823 | 1502 ft | 169 kts | 253° |
| 2026-05-06 16:17 | 51.39009 | 21.21980 | 1499 ft | 171 kts | 255° |
| 2026-05-06 16:18 | 51.38716 | 21.20146 | 1500 ft | 171 kts | 252° |
| 2026-05-06 16:18 | 51.38377 | 21.18312 | 1468 ft | 171 kts | 250° |
| 2026-05-06 16:18 | 51.37967 | 21.16562 | 1457 ft | 165 kts | 239° |
| 2026-05-06 16:18 | 51.37062 | 21.15511 | 1456 ft | 166 kts | 194° |
| 2026-05-06 16:19 | 51.35939 | 21.15871 | 1443 ft | 174 kts | 149° |
| 2026-05-06 16:19 | 51.35282 | 21.17497 | 1435 ft | 182 kts | 106° |
| 2026-05-06 16:19 | 51.35435 | 21.19486 | 1493 ft | 182 kts | 71° |
| 2026-05-06 16:19 | 51.35938 | 21.21239 | 1577 ft | 152 kts | 67° |
| 2026-05-06 16:20 | 51.36346 | 21.22625 | 1474 ft | 130 kts | 68° |
| 2026-05-06 16:20 | 51.36744 | 21.23901 | 1435 ft | 126 kts | 63° |
| 2026-05-06 16:20 | 51.37161 | 21.25153 | 1381 ft | 127 kts | 63° |
| 2026-05-06 16:20 | 51.37594 | 21.26381 | 1350 ft | 129 kts | 60° |
| 2026-05-06 16:21 | 51.38077 | 21.27613 | 1329 ft | 128 kts | 56° |
| 2026-05-06 16:21 | 51.38593 | 21.28733 | 1322 ft | 124 kts | 56° |
| 2026-05-06 16:21 | 51.39221 | 21.29646 | 1298 ft | 126 kts | 13° |
| 2026-05-06 16:21 | 51.40005 | 21.29324 | 1370 ft | 114 kts | 305° |
| 2026-05-06 16:22 | 51.40140 | 21.28165 | 1310 ft | 112 kts | 249° |
| 2026-05-06 16:22 | 51.39878 | 21.26965 | 1195 ft | 115 kts | 248° |
| 2026-05-06 16:22 | 51.39654 | 21.25753 | 1019 ft | 109 kts | 250° |
| 2026-05-06 16:22 | 51.39457 | 21.24637 | 846 ft | 101 kts | 252° |
| 2026-05-06 16:23 | 51.39278 | 21.23562 | 699 ft | 95 kts | 252° |
| 2026-05-06 16:23 | 51.39142 | 21.22715 | 632 ft | 61 kts | 251° |
| 2026-05-06 16:23 | 51.39042 | 21.22151 | 623 ft | 63 kts | 255° |
| 2026-05-06 16:23 | 51.38898 | 21.21251 | 679 ft | 97 kts | 254° |
| 2026-05-06 16:24 | 51.38708 | 21.20206 | 903 ft | 100 kts | 252° |
| 2026-05-06 16:24 | 51.38511 | 21.19109 | 1146 ft | 106 kts | 249° |
| 2026-05-06 16:24 | 51.38241 | 21.17847 | 1452 ft | 124 kts | 247° |
| 2026-05-06 16:24 | 51.37740 | 21.16761 | 1866 ft | 125 kts | 220° |
| 2026-05-06 16:25 | 51.37077 | 21.15778 | 2264 ft | 129 kts | 222° |
| 2026-05-06 16:25 | 51.36462 | 21.14901 | 2981 ft | 115 kts | 215° |
| 2026-05-06 16:25 | 51.35749 | 21.14172 | 3272 ft | 129 kts | 212° |
| 2026-05-06 16:25 | 51.34978 | 21.13508 | 3777 ft | 123 kts | 206° |
| 2026-05-06 16:26 | 51.34181 | 21.12953 | 4222 ft | 127 kts | 202° |
| 2026-05-06 16:26 | 51.33318 | 21.12473 | 4450 ft | 143 kts | 201° |
| 2026-05-06 16:26 | 51.32388 | 21.11728 | 4535 ft | 156 kts | 217° |
| 2026-05-06 16:26 | 51.31566 | 21.10599 | 4658 ft | 162 kts | 221° |
| 2026-05-06 16:27 | 51.30748 | 21.09275 | 4594 ft | 168 kts | 229° |
| 2026-05-06 16:27 | 51.30042 | 21.07760 | 4529 ft | 171 kts | 234° |
| 2026-05-06 16:27 | 51.29389 | 21.06152 | 4434 ft | 175 kts | 236° |
| 2026-05-06 16:27 | 51.28727 | 21.04505 | 4332 ft | 176 kts | 235° |
| 2026-05-06 16:28 | 51.28077 | 21.02942 | 4479 ft | 166 kts | 234° |
| 2026-05-06 16:28 | 51.27438 | 21.01423 | 4559 ft | 164 kts | 234° |
| 2026-05-06 16:28 | 51.26829 | 20.99854 | 4527 ft | 168 kts | 239° |
| 2026-05-06 16:28 | 51.26288 | 20.98198 | 4476 ft | 170 kts | 241° |
| 2026-05-06 16:29 | 51.25748 | 20.96546 | 4521 ft | 167 kts | 240° |
| 2026-05-06 16:29 | 51.25205 | 20.94912 | 4569 ft | 164 kts | 240° |
| 2026-05-06 16:29 | 51.24602 | 20.93403 | 4628 ft | 161 kts | 227° |
| 2026-05-06 16:29 | 51.23613 | 20.92580 | 4577 ft | 165 kts | 197° |
| 2026-05-06 16:30 | 51.22483 | 20.92179 | 4551 ft | 167 kts | 199° |
| 2026-05-06 16:30 | 51.21770 | 20.91723 | 4534 ft | 167 kts | 207° |
| 2026-05-06 16:30 | 51.20374 | 20.90594 | 4509 ft | 168 kts | 210° |
| 2026-05-06 16:30 | 51.19348 | 20.89698 | 4507 ft | 168 kts | 210° |
| 2026-05-06 16:31 | 51.18332 | 20.88786 | 4509 ft | 168 kts | 211° |
| 2026-05-06 16:31 | 51.17318 | 20.87879 | 4511 ft | 168 kts | 211° |
| 2026-05-06 16:31 | 51.16297 | 20.86962 | 4509 ft | 168 kts | 211° |
| 2026-05-06 16:31 | 51.15279 | 20.86046 | 4515 ft | 168 kts | 210° |
| 2026-05-06 16:32 | 51.14260 | 20.85127 | 4519 ft | 169 kts | 211° |
| 2026-05-06 16:32 | 51.13236 | 20.84214 | 4509 ft | 168 kts | 211° |
| 2026-05-06 16:32 | 51.12219 | 20.83316 | 4519 ft | 167 kts | 211° |
| 2026-05-06 16:32 | 51.11204 | 20.82418 | 4522 ft | 168 kts | 211° |
| 2026-05-06 16:33 | 51.10219 | 20.81553 | 4521 ft | 169 kts | 211° |
| 2026-05-06 16:33 | 51.09218 | 20.80669 | 4525 ft | 168 kts | 210° |
| 2026-05-06 16:33 | 51.08201 | 20.79764 | 4526 ft | 168 kts | 211° |
| 2026-05-06 16:34 | 51.06149 | 20.77962 | 4529 ft | 169 kts | 210° |
| 2026-05-06 16:34 | 51.05120 | 20.77054 | 4520 ft | 169 kts | 211° |
| 2026-05-06 16:34 | 51.04093 | 20.76146 | 4527 ft | 169 kts | 210° |
| 2026-05-06 16:34 | 51.03065 | 20.75230 | 4526 ft | 169 kts | 210° |
| 2026-05-06 16:35 | 51.02041 | 20.74325 | 4515 ft | 167 kts | 210° |
| 2026-05-06 16:35 | 51.01040 | 20.73400 | 4528 ft | 165 kts | 215° |
| 2026-05-06 16:35 | 51.00192 | 20.72183 | 4512 ft | 165 kts | 228° |
| 2026-05-06 16:35 | 50.99561 | 20.70659 | 4529 ft | 165 kts | 242° |
| 2026-05-06 16:36 | 50.99118 | 20.68988 | 4541 ft | 168 kts | 245° |
| 2026-05-06 16:36 | 50.98703 | 20.67250 | 4536 ft | 169 kts | 247° |
| 2026-05-06 16:36 | 50.98293 | 20.65494 | 4534 ft | 170 kts | 247° |
| 2026-05-06 16:36 | 50.97872 | 20.63701 | 4532 ft | 170 kts | 246° |
| 2026-05-06 16:37 | 50.97388 | 20.62037 | 4531 ft | 168 kts | 241° |
| 2026-05-06 16:37 | 50.96733 | 20.60537 | 4525 ft | 165 kts | 225° |
| 2026-05-06 16:37 | 50.95874 | 20.59334 | 4532 ft | 166 kts | 220° |
| 2026-05-06 16:37 | 50.94982 | 20.58156 | 4532 ft | 168 kts | 220° |
| 2026-05-06 16:38 | 50.94076 | 20.56994 | 4533 ft | 167 kts | 219° |
| 2026-05-06 16:38 | 50.93130 | 20.55946 | 4532 ft | 166 kts | 211° |
| 2026-05-06 16:38 | 50.92112 | 20.55083 | 4534 ft | 167 kts | 208° |
| 2026-05-06 16:38 | 50.91070 | 20.54255 | 4526 ft | 168 kts | 207° |
| 2026-05-06 16:39 | 50.90020 | 20.53452 | 4525 ft | 167 kts | 207° |
| 2026-05-06 16:39 | 50.88966 | 20.52652 | 4538 ft | 168 kts | 207° |
| 2026-05-06 16:39 | 50.87912 | 20.51871 | 4533 ft | 167 kts | 207° |
| 2026-05-06 16:39 | 50.86866 | 20.51091 | 4530 ft | 165 kts | 207° |
| 2026-05-06 16:40 | 50.85828 | 20.50318 | 4532 ft | 165 kts | 207° |
| 2026-05-06 16:40 | 50.84788 | 20.49548 | 4532 ft | 165 kts | 207° |
| 2026-05-06 16:40 | 50.83749 | 20.48783 | 4539 ft | 165 kts | 207° |
| 2026-05-06 16:40 | 50.82710 | 20.48016 | 4530 ft | 165 kts | 206° |
| 2026-05-06 16:41 | 50.81679 | 20.47252 | 4531 ft | 163 kts | 207° |
| 2026-05-06 16:41 | 50.80674 | 20.46434 | 4540 ft | 162 kts | 210° |
| 2026-05-06 16:41 | 50.79678 | 20.45577 | 4531 ft | 163 kts | 210° |
| 2026-05-06 16:41 | 50.78685 | 20.44699 | 4543 ft | 165 kts | 211° |
| 2026-05-06 16:42 | 50.77691 | 20.43805 | 4533 ft | 164 kts | 211° |
| 2026-05-06 16:42 | 50.76703 | 20.42913 | 4531 ft | 163 kts | 211° |
| 2026-05-06 16:42 | 50.75718 | 20.42035 | 4541 ft | 163 kts | 211° |
| 2026-05-06 16:42 | 50.74730 | 20.41150 | 4545 ft | 163 kts | 211° |
| 2026-05-06 16:43 | 50.73741 | 20.40269 | 4539 ft | 163 kts | 211° |
| 2026-05-06 16:43 | 50.72754 | 20.39382 | 4542 ft | 163 kts | 211° |
| 2026-05-06 16:43 | 50.71768 | 20.38498 | 4544 ft | 163 kts | 210° |
| 2026-05-06 16:43 | 50.70778 | 20.37602 | 4539 ft | 164 kts | 211° |
| 2026-05-06 16:44 | 50.69782 | 20.36717 | 4547 ft | 165 kts | 211° |
| 2026-05-06 16:44 | 50.68782 | 20.35824 | 4542 ft | 165 kts | 211° |
| 2026-05-06 16:44 | 50.67760 | 20.34915 | 4379 ft | 172 kts | 211° |
| 2026-05-06 16:44 | 50.66719 | 20.33970 | 4219 ft | 174 kts | 211° |
| 2026-05-06 16:45 | 50.65659 | 20.33008 | 4058 ft | 177 kts | 211° |
| 2026-05-06 16:45 | 50.64587 | 20.32049 | 3882 ft | 178 kts | 211° |
| 2026-05-06 16:45 | 50.63509 | 20.31084 | 3716 ft | 179 kts | 211° |
| 2026-05-06 16:45 | 50.62428 | 20.30105 | 3545 ft | 180 kts | 211° |
| 2026-05-06 16:46 | 50.61344 | 20.29131 | 3378 ft | 179 kts | 211° |
| 2026-05-06 16:46 | 50.60260 | 20.28174 | 3212 ft | 178 kts | 211° |
| 2026-05-06 16:46 | 50.59178 | 20.27220 | 3054 ft | 178 kts | 211° |
| 2026-05-06 16:46 | 50.58101 | 20.26242 | 2878 ft | 179 kts | 212° |
| 2026-05-06 16:47 | 50.57032 | 20.25236 | 2701 ft | 179 kts | 212° |
| 2026-05-06 16:47 | 50.55974 | 20.24208 | 2530 ft | 179 kts | 213° |
| 2026-05-06 16:47 | 50.54918 | 20.23169 | 2357 ft | 178 kts | 213° |
| 2026-05-06 16:47 | 50.53873 | 20.22131 | 2215 ft | 179 kts | 213° |
| 2026-05-06 16:48 | 50.52820 | 20.21096 | 2107 ft | 178 kts | 213° |
| 2026-05-06 16:48 | 50.51772 | 20.20066 | 2045 ft | 176 kts | 212° |
| 2026-05-06 16:48 | 50.50745 | 20.19054 | 2017 ft | 173 kts | 213° |
| 2026-05-06 16:48 | 50.49736 | 20.18058 | 2019 ft | 170 kts | 212° |
| 2026-05-06 16:49 | 50.48740 | 20.17061 | 2018 ft | 169 kts | 213° |
| 2026-05-06 16:49 | 50.47750 | 20.16093 | 2001 ft | 166 kts | 213° |
| 2026-05-06 16:49 | 50.46767 | 20.15156 | 1993 ft | 165 kts | 212° |
| 2026-05-06 16:49 | 50.45790 | 20.14206 | 2026 ft | 167 kts | 213° |
| 2026-05-06 16:50 | 50.44826 | 20.13171 | 2054 ft | 169 kts | 215° |
| 2026-05-06 16:50 | 50.43869 | 20.12096 | 2027 ft | 169 kts | 216° |
| 2026-05-06 16:50 | 50.42920 | 20.11044 | 2002 ft | 165 kts | 217° |
| 2026-05-06 16:50 | 50.42299 | 20.10376 | 2001 ft | 162 kts | 216° |
| 2026-05-06 16:51 | 50.41062 | 20.09088 | 1991 ft | 157 kts | 215° |
| 2026-05-06 16:51 | 50.40462 | 20.08452 | 2011 ft | 158 kts | 215° |
| 2026-05-06 16:51 | 50.39555 | 20.07468 | 2019 ft | 159 kts | 215° |
| 2026-05-06 16:51 | 50.38630 | 20.06476 | 2026 ft | 163 kts | 216° |
| 2026-05-06 16:52 | 50.37684 | 20.05475 | 2008 ft | 165 kts | 215° |
| 2026-05-06 16:52 | 50.36742 | 20.04428 | 2008 ft | 167 kts | 216° |
| 2026-05-06 16:52 | 50.35854 | 20.03432 | 2001 ft | 159 kts | 216° |
| 2026-05-06 16:52 | 50.35011 | 20.02526 | 2014 ft | 154 kts | 216° |
| 2026-05-06 16:53 | 50.34121 | 20.01588 | 2016 ft | 153 kts | 217° |
| 2026-05-06 16:53 | 50.33260 | 20.00618 | 2002 ft | 152 kts | 217° |
| 2026-05-06 16:53 | 50.32418 | 19.99616 | 1983 ft | 151 kts | 218° |
| 2026-05-06 16:53 | 50.31596 | 19.98634 | 1983 ft | 147 kts | 218° |
| 2026-05-06 16:54 | 50.30778 | 19.97656 | 2004 ft | 149 kts | 216° |
| 2026-05-06 16:54 | 50.29943 | 19.96675 | 2006 ft | 151 kts | 217° |
| 2026-05-06 16:54 | 50.29108 | 19.95724 | 1989 ft | 147 kts | 216° |
| 2026-05-06 16:54 | 50.28274 | 19.94771 | 2009 ft | 150 kts | 215° |
| 2026-05-06 16:55 | 50.27430 | 19.93776 | 2002 ft | 154 kts | 216° |
| 2026-05-06 16:55 | 50.26570 | 19.92806 | 1987 ft | 151 kts | 216° |
| 2026-05-06 16:55 | 50.25724 | 19.91895 | 1992 ft | 145 kts | 214° |
| 2026-05-06 16:55 | 50.24909 | 19.90965 | 2035 ft | 146 kts | 215° |
| 2026-05-06 16:56 | 50.24095 | 19.90007 | 2047 ft | 147 kts | 216° |
| 2026-05-06 16:56 | 50.23247 | 19.89064 | 2009 ft | 150 kts | 215° |
| 2026-05-06 16:56 | 50.22395 | 19.88141 | 1997 ft | 148 kts | 215° |
| 2026-05-06 16:56 | 50.21557 | 19.87218 | 1986 ft | 146 kts | 215° |
| 2026-05-06 16:57 | 50.20724 | 19.86301 | 1990 ft | 147 kts | 215° |
| 2026-05-06 16:57 | 50.19964 | 19.85456 | 1979 ft | 146 kts | 216° |
| 2026-05-06 16:57 | 50.19148 | 19.84653 | 2011 ft | 112 kts | 209° |
| 2026-05-06 16:57 | 50.18529 | 19.84098 | 1975 ft | 100 kts | 208° |
| 2026-05-06 16:58 | 50.17899 | 19.83588 | 1929 ft | 105 kts | 207° |
| 2026-05-06 16:58 | 50.17268 | 19.83041 | 1881 ft | 103 kts | 212° |
| 2026-05-06 16:58 | 50.16658 | 19.82470 | 1898 ft | 100 kts | 212° |
| 2026-05-06 16:58 | 50.16076 | 19.81911 | 1928 ft | 100 kts | 208° |
| 2026-05-06 16:59 | 50.15470 | 19.81327 | 1883 ft | 103 kts | 207° |
| 2026-05-06 16:59 | 50.14820 | 19.80802 | 1897 ft | 107 kts | 203° |
| 2026-05-06 16:59 | 50.14133 | 19.80398 | 1950 ft | 104 kts | 202° |
| 2026-05-06 16:59 | 50.13466 | 19.79950 | 1946 ft | 104 kts | 207° |
| 2026-05-06 17:00 | 50.12819 | 19.79446 | 1930 ft | 105 kts | 207° |
| 2026-05-06 17:00 | 50.12170 | 19.78871 | 1858 ft | 108 kts | 211° |
| 2026-05-06 17:00 | 50.11482 | 19.78412 | 1853 ft | 108 kts | 202° |
| 2026-05-06 17:00 | 50.10858 | 19.77833 | 1865 ft | 104 kts | 227° |
| 2026-05-06 17:01 | 50.10565 | 19.76822 | 1981 ft | 103 kts | 254° |
| 2026-05-06 17:01 | 50.10742 | 19.75692 | 1941 ft | 119 kts | 296° |
| 2026-05-06 17:01 | 50.11424 | 19.74935 | 1930 ft | 126 kts | 343° |
| 2026-05-06 17:01 | 50.12292 | 19.75121 | 1878 ft | 132 kts | 28° |
| 2026-05-06 17:02 | 50.12860 | 19.76215 | 1899 ft | 132 kts | 79° |
| 2026-05-06 17:02 | 50.12697 | 19.77479 | 1950 ft | 117 kts | 138° |
| 2026-05-06 17:02 | 50.12017 | 19.78099 | 1953 ft | 113 kts | 158° |
| 2026-05-06 17:02 | 50.11495 | 19.79070 | 1878 ft | 128 kts | 118° |
| 2026-05-06 17:03 | 50.11459 | 19.80487 | 1849 ft | 132 kts | 82° |
| 2026-05-06 17:03 | 50.11753 | 19.81847 | 1805 ft | 136 kts | 74° |
| 2026-05-06 17:03 | 50.12054 | 19.83246 | 1802 ft | 137 kts | 77° |
| 2026-05-06 17:03 | 50.12123 | 19.84667 | 1751 ft | 129 kts | 115° |
| 2026-05-06 17:04 | 50.11651 | 19.85720 | 1802 ft | 113 kts | 144° |
| 2026-05-06 17:04 | 50.10983 | 19.86323 | 1752 ft | 110 kts | 169° |
| 2026-05-06 17:04 | 50.10259 | 19.86233 | 1725 ft | 105 kts | 207° |
| 2026-05-06 17:04 | 50.09720 | 19.85556 | 1555 ft | 112 kts | 221° |
| 2026-05-06 17:05 | 50.09142 | 19.84728 | 1375 ft | 114 kts | 228° |
| 2026-05-06 17:05 | 50.08665 | 19.83757 | 1286 ft | 112 kts | 237° |
| 2026-05-06 17:05 | 50.08331 | 19.82650 | 1152 ft | 114 kts | 253° |
| 2026-05-06 17:05 | 50.08181 | 19.81428 | 1007 ft | 112 kts | 259° |
| 2026-05-06 17:06 | 50.08023 | 19.80319 | 848 ft | 100 kts | 256° |
| 2026-05-06 17:06 | 50.07907 | 19.79456 | 799 ft | 62 kts | 255° |
| 2026-05-06 17:06 | 50.07861 | 19.79177 | 799 ft | 14 kts | 257° |
| 2026-05-06 17:06 | 50.07792 | 19.79073 | 799 ft | 17 kts | 167° |
| 2026-05-06 17:07 | 50.07693 | 19.79106 | 798 ft | 13 kts | 167° |
| 2026-05-06 17:07 | 50.07675 | 19.79113 | 798 ft | 2 kts | 166° |
| 2026-05-06 17:07 | 50.07635 | 19.79127 | 798 ft | 9 kts | 164° |
| 2026-05-06 17:07 | 50.07561 | 19.79147 | 798 ft | 11 kts | 177° |
| 2026-05-06 17:08 | 50.07520 | 19.79187 | 798 ft | 7 kts | 90° |
| 2026-05-06 17:08 | 50.07537 | 19.79258 | 798 ft | 6 kts | 19° |
| 2026-05-06 17:08 | 50.07570 | 19.79250 | 798 ft | 0 kts | 348° |